Luna, Arkansas
Current Conditions -  °F | °C
As of 4:53 PM on Friday 28 Nov 2014 (Local Time) from KGLH Reporting Station
Clear Clear  
Wind Chill: 11°   Ceiling: Unl
Heat Index: 11°   Visibility: 9mi
Dew Point: -1°   Wind: 10mph
Humidity: 45%   Direction: 190°S
Pressure: 30.18"   Gusts: NA
Location:  33.3324°N, 91.3183°W
Report Text: KGLH 282253Z AUTO 19009KT 9SM CLR 11/M01 A3018 RMK AO2 SLP230 T01111006
Loading
Personal Weather Stations






























Interactive Weather Map New forecast layout! Learn more

10-Day Weather Forecast

Advertisements
Track Severe Weather on mobile